TimeCST,TemperatureF,Dew PointF,Humidity,Sea Level PressureIn,VisibilityMPH,Wind Direction,Wind SpeedMPH,Gust SpeedMPH,PrecipitationIn,Events,Conditions,WindDirDegrees,DateUTC
12:15 AM,29.1,29.1,100,29.99,1.2,Calm,Calm,-,0.01,Snow,Light Snow,0,2014-01-05 06:15:00
12:35 AM,29.1,29.1,100,29.98,1.5,Calm,Calm,-,0.01,Snow,Light Snow,0,2014-01-05 06:35:00
12:55 AM,29.3,29.3,100,29.98,1.2,Calm,Calm,-,0.02,Snow,Light Snow,0,2014-01-05 06:55:00
1:15 AM,29.1,29.1,100,29.98,1.2,Calm,Calm,-,0.01,Snow,Light Snow,0,2014-01-05 07:15:00
1:35 AM,28.9,28.9,100,29.98,1.2,Calm,Calm,-,0.02,Snow,Light Snow,0,2014-01-05 07:35:00
1:55 AM,28.8,28.8,100,29.99,1.8,Calm,Calm,-,0.02,Snow,Light Snow,0,2014-01-05 07:55:00
2:15 AM,28.8,28.8,100,29.99,1.5,Calm,Calm,-,N/A,Snow,Light Snow,0,2014-01-05 08:15:00
2:35 AM,28.8,28.8,100,29.98,1.8,Calm,Calm,-,0.01,Snow,Light Snow,0,2014-01-05 08:35:00
2:55 AM,28.4,28.4,100,29.98,2.0,Calm,Calm,-,0.01,Snow,Light Snow,0,2014-01-05 08:55:00
3:15 AM,28.2,28.2,100,29.97,2.0,Calm,Calm,-,N/A,Snow,Light Snow,0,2014-01-05 09:15:00
3:35 AM,27.5,27.5,100,29.97,1.8,Calm,Calm,-,0.01,Snow,Light Snow,0,2014-01-05 09:35:00
3:55 AM,28.0,28.0,100,29.97,1.8,Calm,Calm,-,0.01,Snow,Light Snow,0,2014-01-05 09:55:00
4:15 AM,28.2,28.2,100,29.97,1.5,Calm,Calm,-,N/A,Snow,Light Snow,0,2014-01-05 10:15:00
4:35 AM,28.2,28.2,100,29.96,1.5,Calm,Calm,-,0.01,Snow,Light Snow,0,2014-01-05 10:35:00
4:55 AM,28.0,28.0,100,29.96,1.8,Calm,Calm,-,0.01,Snow,Light Snow,0,2014-01-05 10:55:00
5:15 AM,27.5,27.5,100,29.96,2.0,Calm,Calm,-,N/A,Snow,Light Snow,0,2014-01-05 11:15:00
5:35 AM,27.5,27.5,100,29.96,1.8,Calm,Calm,-,N/A,Snow,Light Snow,0,2014-01-05 11:35:00
5:55 AM,28.2,28.2,100,29.95,2.5,Calm,Calm,-,0.01,Snow,Light Snow,0,2014-01-05 11:55:00
6:15 AM,27.7,27.7,100,29.95,3.0,Calm,Calm,-,N/A,Snow,Light Snow,0,2014-01-05 12:15:00
6:35 AM,27.9,27.9,100,29.95,4.0,Calm,Calm,-,N/A,,Scattered Clouds,0,2014-01-05 12:35:00
6:55 AM,26.8,26.8,100,29.95,3.0,Calm,Calm,-,N/A,,Overcast,0,2014-01-05 12:55:00
7:15 AM,27.7,27.7,100,29.95,2.0,Calm,Calm,-,N/A,Snow,Light Snow,0,2014-01-05 13:15:00
7:35 AM,28.4,28.4,100,29.94,1.8,Calm,Calm,-,N/A,Snow,Light Snow,0,2014-01-05 13:35:00
7:55 AM,28.9,28.9,100,29.94,2.0,North,4.6,-,N/A,Snow,Light Snow,10,2014-01-05 13:55:00
8:15 AM,28.9,28.9,100,29.95,3.0,NNE,5.8,-,N/A,Snow,Light Snow,20,2014-01-05 14:15:00
8:35 AM,28.9,28.9,100,29.96,3.0,NNE,6.9,-,N/A,Snow,Light Snow,20,2014-01-05 14:35:00
8:55 AM,28.8,28.8,100,29.96,1.5,NNE,5.8,-,N/A,Snow,Light Snow,20,2014-01-05 14:55:00
9:15 AM,28.6,28.4,99,29.95,0.8,NNE,8.1,-,N/A,Snow,Light Snow,30,2014-01-05 15:15:00
9:35 AM,28.4,27.7,97,29.93,0.5,NNE,9.2,-,N/A,Snow,Snow,30,2014-01-05 15:35:00
9:55 AM,28.2,27.1,96,29.94,0.8,NNE,8.1,-,N/A,Snow,Light Snow,20,2014-01-05 15:55:00
10:15 AM,27.9,26.4,94,29.92,1.0,NNE,11.5,-,N/A,Snow,Light Snow,20,2014-01-05 16:15:00
10:35 AM,27.3,25.7,94,29.91,0.8,North,10.4,-,N/A,Snow,Light Snow,10,2014-01-05 16:35:00
10:55 AM,27.5,25.7,93,29.90,0.8,North,13.8,-,N/A,Snow,Light Snow,360,2014-01-05 16:55:00
11:15 AM,27.0,25.2,93,29.89,0.5,North,13.8,18.4,N/A,Snow,Light Snow,10,2014-01-05 17:15:00
11:35 AM,26.6,25.0,94,29.86,0.5,North,12.7,20.7,N/A,Snow,Snow,10,2014-01-05 17:35:00
11:55 AM,26.6,24.8,93,29.84,0.5,North,13.8,18.4,N/A,Snow,Light Snow,360,2014-01-05 17:55:00
12:15 PM,26.4,24.4,92,29.83,0.8,North,13.8,-,N/A,Snow,Light Snow,10,2014-01-05 18:15:00
12:35 PM,26.1,23.9,92,29.81,0.5,North,16.1,21.9,N/A,Snow,Light Snow,10,2014-01-05 18:35:00
12:55 PM,25.7,23.5,92,29.81,0.8,North,18.4,26.5,N/A,Snow,Light Snow,10,2014-01-05 18:55:00
1:15 PM,25.5,23.0,90,29.79,0.5,North,18.4,31.1,N/A,,Overcast,10,2014-01-05 19:15:00
1:35 PM,25.5,23.0,90,29.79,-9999.0,North,24.2,32.2,N/A,,Overcast,10,2014-01-05 19:35:00
1:55 PM,25.3,23.0,91,29.79,-9999.0,North,23.0,26.5,N/A,,Overcast,360,2014-01-05 19:55:00
2:15 PM,25.2,22.8,91,29.79,-9999.0,North,20.7,28.8,N/A,,Overcast,10,2014-01-05 20:15:00
2:35 PM,24.8,22.6,91,29.78,-9999.0,North,21.9,29.9,N/A,,Overcast,10,2014-01-05 20:35:00
2:55 PM,24.8,22.5,91,29.78,-9999.0,North,26.5,33.4,N/A,,Overcast,10,2014-01-05 20:55:00
3:15 PM,24.4,22.1,91,29.79,-9999.0,North,21.9,29.9,N/A,,Overcast,10,2014-01-05 21:15:00
3:35 PM,24.4,22.1,91,29.77,-9999.0,NNE,23.0,28.8,N/A,,Overcast,20,2014-01-05 21:35:00
3:55 PM,24.6,22.1,90,29.78,-9999.0,NNE,18.4,28.8,N/A,,Unknown,20,2014-01-05 21:55:00
4:15 PM,24.8,22.5,91,29.79,-9999.0,North,20.7,25.3,N/A,,Unknown,360,2014-01-05 22:15:00
4:35 PM,24.6,22.1,90,29.79,-9999.0,North,18.4,26.5,N/A,,Overcast,10,2014-01-05 22:35:00
4:55 PM,24.4,22.5,92,29.80,-9999.0,North,20.7,27.6,N/A,,Overcast,360,2014-01-05 22:55:00
5:15 PM,23.9,21.7,91,29.80,-9999.0,North,21.9,27.6,N/A,,Overcast,10,2014-01-05 23:15:00
5:35 PM,23.9,21.7,91,29.79,-9999.0,North,19.6,29.9,N/A,,Overcast,360,2014-01-05 23:35:00
5:55 PM,23.9,21.6,91,29.79,-9999.0,North,21.9,28.8,N/A,,Overcast,360,2014-01-05 23:55:00
6:15 PM,23.9,21.2,89,29.79,-9999.0,North,18.4,33.4,N/A,,Overcast,360,2014-01-06 00:15:00
6:35 PM,23.9,21.2,89,29.79,1.8,North,19.6,27.6,N/A,Snow,Light Snow,360,2014-01-06 00:35:00
6:55 PM,23.9,21.2,89,29.80,1.2,North,21.9,28.8,N/A,Snow,Snow,360,2014-01-06 00:55:00
7:15 PM,23.7,21.6,91,29.81,0.5,North,24.2,34.5,N/A,Snow,Heavy Snow,350,2014-01-06 01:15:00
7:35 PM,22.1,20.1,92,29.82,-9999.0,NNW,25.3,33.4,N/A,,Overcast,330,2014-01-06 01:35:00
7:55 PM,20.7,18.3,91,29.83,-9999.0,NNW,26.5,39.1,N/A,,Overcast,330,2014-01-06 01:55:00
8:15 PM,19.4,16.7,89,29.83,-9999.0,NNW,21.9,36.8,N/A,,Overcast,330,2014-01-06 02:15:00
8:35 PM,17.6,14.9,89,29.83,-9999.0,NNW,27.6,38.0,N/A,,Unknown,330,2014-01-06 02:35:00
8:55 PM,16.9,14.0,88,29.85,-9999.0,NW,23.0,32.2,N/A,,Overcast,320,2014-01-06 02:55:00
9:15 PM,15.3,12.2,88,29.86,-9999.0,NW,26.5,32.2,N/A,,Overcast,320,2014-01-06 03:15:00
9:35 PM,13.8,10.8,88,29.86,-9999.0,NW,31.1,36.8,N/A,,Unknown,320,2014-01-06 03:35:00
9:55 PM,12.0,8.6,86,29.87,0.8,NW,26.5,34.5,N/A,Snow,Snow,320,2014-01-06 03:55:00
10:15 PM,11.1,7.7,86,29.88,0.8,NW,21.9,31.1,N/A,Snow,Snow,310,2014-01-06 04:15:00
10:35 PM,10.0,6.3,85,29.89,0.8,NW,20.7,33.4,N/A,Snow,Snow,310,2014-01-06 04:35:00
10:55 PM,9.1,5.2,84,29.90,1.0,NW,21.9,29.9,N/A,Snow,Snow,320,2014-01-06 04:55:00
11:15 PM,7.9,3.9,84,29.91,1.2,NW,17.3,31.1,N/A,Snow,Light Snow,310,2014-01-06 05:15:00
11:35 PM,7.0,2.8,83,29.91,1.2,NW,19.6,28.8,N/A,Snow,Light Snow,310,2014-01-06 05:35:00
11:55 PM,5.9,1.6,82,29.92,1.2,NW,19.6,28.8,N/A,Snow,Light Snow,310,2014-01-06 05:55:00